sensor_id;sensor_type;location;lat;lon;timestamp;pressure;altitude;pressure_sealevel;temperature;humidity
61109;BME280;46995;55.740;37.402;2023-08-08T00:01:53;98688.81;;;23.17;57.62
61109;BME280;46995;55.740;37.402;2023-08-08T00:04:18;98683.06;;;23.14;57.50
61109;BME280;46995;55.740;37.402;2023-08-08T00:06:44;98695.94;;;23.12;56.92
61109;BME280;46995;55.740;37.402;2023-08-08T00:09:09;98693.47;;;23.10;57.38
61109;BME280;46995;55.740;37.402;2023-08-08T00:11:35;98684.81;;;23.08;57.81
61109;BME280;46995;55.740;37.402;2023-08-08T00:14:02;98676.97;;;23.07;57.64
61109;BME280;46995;55.740;37.402;2023-08-08T00:16:27;98689.63;;;23.06;57.52
61109;BME280;46995;55.740;37.402;2023-08-08T00:18:53;98686.09;;;23.06;57.26
61109;BME280;46995;55.740;37.402;2023-08-08T00:21:19;98675.81;;;23.03;57.94
61109;BME280;46995;55.740;37.402;2023-08-08T00:23:45;98669.59;;;23.02;57.68
61109;BME280;46995;55.740;37.402;2023-08-08T00:26:11;98669.34;;;23.04;57.44
61109;BME280;46995;55.740;37.402;2023-08-08T00:28:37;98657.53;;;23.05;57.88
61109;BME280;46995;55.740;37.402;2023-08-08T00:31:02;98656.47;;;23.06;57.77
61109;BME280;46995;55.740;37.402;2023-08-08T00:33:28;98639.25;;;23.07;57.56
61109;BME280;46995;55.740;37.402;2023-08-08T00:35:53;98646.28;;;23.08;57.70
61109;BME280;46995;55.740;37.402;2023-08-08T00:38:19;98640.91;;;23.08;57.24
61109;BME280;46995;55.740;37.402;2023-08-08T00:40:45;98637.97;;;23.09;57.56
61109;BME280;46995;55.740;37.402;2023-08-08T00:43:10;98631.75;;;23.09;57.58
61109;BME280;46995;55.740;37.402;2023-08-08T00:45:37;98635.03;;;23.11;57.41
61109;BME280;46995;55.740;37.402;2023-08-08T00:48:04;98633.41;;;23.10;57.59
61109;BME280;46995;55.740;37.402;2023-08-08T00:50:30;98638.78;;;23.10;57.34
61109;BME280;46995;55.740;37.402;2023-08-08T00:52:56;98637.13;;;23.09;57.45
61109;BME280;46995;55.740;37.402;2023-08-08T00:55:22;98628.50;;;23.07;58.06
61109;BME280;46995;55.740;37.402;2023-08-08T00:57:48;98616.78;;;23.01;57.69
61109;BME280;46995;55.740;37.402;2023-08-08T01:00:13;98614.19;;;22.95;57.69
61109;BME280;46995;55.740;37.402;2023-08-08T01:02:39;98618.41;;;22.91;57.69
61109;BME280;46995;55.740;37.402;2023-08-08T01:05:05;98635.84;;;22.88;58.24
61109;BME280;46995;55.740;37.402;2023-08-08T01:10:08;98638.78;;;22.87;57.72
61109;BME280;46995;55.740;37.402;2023-08-08T01:12:45;98643.91;;;22.88;58.24
61109;BME280;46995;55.740;37.402;2023-08-08T01:15:12;98645.78;;;22.88;58.06
61109;BME280;46995;55.740;37.402;2023-08-08T01:17:38;98622.63;;;22.87;57.84
61109;BME280;46995;55.740;37.402;2023-08-08T01:20:04;98627.19;;;22.86;58.46
61109;BME280;46995;55.740;37.402;2023-08-08T01:22:40;98600.72;;;22.71;58.23
61109;BME280;46995;55.740;37.402;2023-08-08T01:25:08;98615.59;;;22.86;58.38
61109;BME280;46995;55.740;37.402;2023-08-08T01:27:35;98604.59;;;22.87;57.98
61109;BME280;46995;55.740;37.402;2023-08-08T01:30:00;98610.78;;;22.88;58.01
61109;BME280;46995;55.740;37.402;2023-08-08T01:32:26;98608.09;;;22.88;58.30
61109;BME280;46995;55.740;37.402;2023-08-08T01:34:51;98601.66;;;22.89;58.21
61109;BME280;46995;55.740;37.402;2023-08-08T01:37:18;98600.28;;;22.86;58.08
61109;BME280;46995;55.740;37.402;2023-08-08T01:39:45;98610.66;;;22.83;58.16
61109;BME280;46995;55.740;37.402;2023-08-08T01:42:12;98614.44;;;22.82;57.99
61109;BME280;46995;55.740;37.402;2023-08-08T01:44:39;98600.38;;;22.79;58.40
61109;BME280;46995;55.740;37.402;2023-08-08T01:47:06;98604.13;;;22.78;58.06
61109;BME280;46995;55.740;37.402;2023-08-08T01:49:32;98611.38;;;22.78;58.24
61109;BME280;46995;55.740;37.402;2023-08-08T01:51:57;98613.50;;;22.76;58.79
61109;BME280;46995;55.740;37.402;2023-08-08T01:54:23;98615.34;;;22.75;59.02
61109;BME280;46995;55.740;37.402;2023-08-08T01:56:49;98612.88;;;22.74;58.70
61109;BME280;46995;55.740;37.402;2023-08-08T01:59:15;98609.81;;;22.70;58.35
61109;BME280;46995;55.740;37.402;2023-08-08T02:01:40;98620.81;;;22.69;58.73
61109;BME280;46995;55.740;37.402;2023-08-08T02:04:06;98620.00;;;22.68;59.17
61109;BME280;46995;55.740;37.402;2023-08-08T02:06:31;98638.22;;;22.66;58.35
61109;BME280;46995;55.740;37.402;2023-08-08T02:08:57;98634.16;;;22.64;59.15
61109;BME280;46995;55.740;37.402;2023-08-08T02:11:23;98633.81;;;22.60;59.18
61109;BME280;46995;55.740;37.402;2023-08-08T02:13:48;98632.59;;;22.56;59.10
61109;BME280;46995;55.740;37.402;2023-08-08T02:16:14;98640.53;;;22.51;59.05
61109;BME280;46995;55.740;37.402;2023-08-08T02:18:39;98634.00;;;22.47;59.28
61109;BME280;46995;55.740;37.402;2023-08-08T02:21:07;98630.13;;;22.43;59.52
61109;BME280;46995;55.740;37.402;2023-08-08T02:23:33;98633.25;;;22.40;59.91
61109;BME280;46995;55.740;37.402;2023-08-08T02:25:58;98635.94;;;22.40;59.75
61109;BME280;46995;55.740;37.402;2023-08-08T02:28:24;98646.72;;;22.40;59.47
61109;BME280;46995;55.740;37.402;2023-08-08T02:30:50;98636.19;;;22.38;59.09
61109;BME280;46995;55.740;37.402;2023-08-08T02:33:15;98634.56;;;22.37;59.70
61109;BME280;46995;55.740;37.402;2023-08-08T02:35:41;98632.09;;;22.36;60.09
61109;BME280;46995;55.740;37.402;2023-08-08T02:38:06;98635.03;;;22.34;59.50
61109;BME280;46995;55.740;37.402;2023-08-08T02:40:32;98624.94;;;22.30;59.98
61109;BME280;46995;55.740;37.402;2023-08-08T02:42:59;98631.38;;;22.29;60.21
61109;BME280;46995;55.740;37.402;2023-08-08T02:45:25;98636.16;;;22.27;61.04
61109;BME280;46995;55.740;37.402;2023-08-08T02:47:51;98634.16;;;22.22;59.92
61109;BME280;46995;55.740;37.402;2023-08-08T02:50:18;98641.88;;;22.19;60.85
61109;BME280;46995;55.740;37.402;2023-08-08T02:52:45;98639.41;;;22.17;60.22
61109;BME280;46995;55.740;37.402;2023-08-08T02:55:10;98635.28;;;22.15;60.55
61109;BME280;46995;55.740;37.402;2023-08-08T02:57:38;98633.28;;;22.10;60.41
61109;BME280;46995;55.740;37.402;2023-08-08T03:00:03;98634.78;;;22.06;60.61
61109;BME280;46995;55.740;37.402;2023-08-08T03:02:35;98639.94;;;22.08;61.63
61109;BME280;46995;55.740;37.402;2023-08-08T03:05:01;98636.09;;;22.15;61.37
61109;BME280;46995;55.740;37.402;2023-08-08T03:07:26;98638.03;;;22.26;61.19
61109;BME280;46995;55.740;37.402;2023-08-08T03:09:52;98636.63;;;22.35;61.28
61109;BME280;46995;55.740;37.402;2023-08-08T03:12:18;98638.19;;;22.43;60.30
61109;BME280;46995;55.740;37.402;2023-08-08T03:14:44;98637.16;;;22.44;59.81
61109;BME280;46995;55.740;37.402;2023-08-08T03:17:10;98639.84;;;22.44;60.80
61109;BME280;46995;55.740;37.402;2023-08-08T03:19:35;98642.97;;;22.41;60.57
61109;BME280;46995;55.740;37.402;2023-08-08T03:22:02;98646.72;;;22.40;61.21
61109;BME280;46995;55.740;37.402;2023-08-08T03:24:27;98643.44;;;22.38;60.93
61109;BME280;46995;55.740;37.402;2023-08-08T03:26:53;98652.91;;;22.40;61.23
61109;BME280;46995;55.740;37.402;2023-08-08T03:29:19;98651.88;;;22.42;61.07
61109;BME280;46995;55.740;37.402;2023-08-08T03:31:47;98653.75;;;22.41;61.09
61109;BME280;46995;55.740;37.402;2023-08-08T03:34:13;98647.78;;;22.39;60.93
61109;BME280;46995;55.740;37.402;2023-08-08T03:36:40;98653.03;;;22.46;61.01
61109;BME280;46995;55.740;37.402;2023-08-08T03:39:06;98646.75;;;22.52;60.93
61109;BME280;46995;55.740;37.402;2023-08-08T03:41:33;98649.47;;;22.63;61.01
61109;BME280;46995;55.740;37.402;2023-08-08T03:44:00;98657.38;;;22.76;60.33
61109;BME280;46995;55.740;37.402;2023-08-08T03:46:28;98652.25;;;22.87;60.18
61109;BME280;46995;55.740;37.402;2023-08-08T03:48:54;98645.69;;;22.94;59.82
61109;BME280;46995;55.740;37.402;2023-08-08T03:51:19;98655.75;;;22.99;59.51
61109;BME280;46995;55.740;37.402;2023-08-08T03:53:46;98660.09;;;23.00;60.04
61109;BME280;46995;55.740;37.402;2023-08-08T03:56:11;98656.81;;;22.98;59.96
61109;BME280;46995;55.740;37.402;2023-08-08T03:58:38;98651.41;;;22.98;60.23
61109;BME280;46995;55.740;37.402;2023-08-08T04:01:05;98656.81;;;22.98;60.03
61109;BME280;46995;55.740;37.402;2023-08-08T04:03:31;98659.75;;;22.96;59.85
61109;BME280;46995;55.740;37.402;2023-08-08T04:05:56;98667.44;;;22.93;59.94
61109;BME280;46995;55.740;37.402;2023-08-08T04:08:22;98663.16;;;22.92;60.21
61109;BME280;46995;55.740;37.402;2023-08-08T04:10:48;98661.50;;;22.91;60.28
61109;BME280;46995;55.740;37.402;2023-08-08T04:13:13;98666.88;;;22.91;60.49
61109;BME280;46995;55.740;37.402;2023-08-08T04:15:39;98673.91;;;22.92;60.00
61109;BME280;46995;55.740;37.402;2023-08-08T04:18:05;98671.94;;;22.87;60.44
61109;BME280;46995;55.740;37.402;2023-08-08T04:20:34;98683.97;;;22.85;60.87
61109;BME280;46995;55.740;37.402;2023-08-08T04:22:59;98674.00;;;22.85;61.04
61109;BME280;46995;55.740;37.402;2023-08-08T04:25:25;98670.28;;;22.86;60.68
61109;BME280;46995;55.740;37.402;2023-08-08T04:27:51;98672.38;;;22.84;60.88
61109;BME280;46995;55.740;37.402;2023-08-08T04:30:16;98678.44;;;22.79;60.99
61109;BME280;46995;55.740;37.402;2023-08-08T04:32:42;98684.88;;;22.78;61.13
61109;BME280;46995;55.740;37.402;2023-08-08T04:35:08;98680.09;;;22.80;60.84
61109;BME280;46995;55.740;37.402;2023-08-08T04:37:33;98677.97;;;22.83;61.14
61109;BME280;46995;55.740;37.402;2023-08-08T04:40:00;98674.38;;;22.89;60.81
61109;BME280;46995;55.740;37.402;2023-08-08T04:42:28;98671.78;;;22.94;60.74
61109;BME280;46995;55.740;37.402;2023-08-08T04:44:53;98674.59;;;22.99;60.80
61109;BME280;46995;55.740;37.402;2023-08-08T04:47:19;98671.81;;;23.05;60.82
61109;BME280;46995;55.740;37.402;2023-08-08T04:49:44;98677.31;;;23.10;60.67
61109;BME280;46995;55.740;37.402;2023-08-08T04:52:10;98667.72;;;23.14;60.91
61109;BME280;46995;55.740;37.402;2023-08-08T04:54:36;98670.66;;;23.13;60.48
61109;BME280;46995;55.740;37.402;2023-08-08T04:57:01;98674.59;;;22.99;60.50
61109;BME280;46995;55.740;37.402;2023-08-08T04:59:27;98679.31;;;22.92;60.60
61109;BME280;46995;55.740;37.402;2023-08-08T05:01:52;98670.72;;;22.83;60.71
61109;BME280;46995;55.740;37.402;2023-08-08T05:04:18;98681.63;;;22.76;61.14
61109;BME280;46995;55.740;37.402;2023-08-08T05:06:43;98680.41;;;22.72;60.94
61109;BME280;46995;55.740;37.402;2023-08-08T05:09:09;98684.19;;;22.71;61.21
61109;BME280;46995;55.740;37.402;2023-08-08T05:11:35;98684.06;;;22.78;61.25
61109;BME280;46995;55.740;37.402;2023-08-08T05:14:01;98686.44;;;22.86;61.35
61109;BME280;46995;55.740;37.402;2023-08-08T05:16:26;98693.81;;;22.91;61.22
61109;BME280;46995;55.740;37.402;2023-08-08T05:18:52;98699.19;;;22.91;61.42
61109;BME280;46995;55.740;37.402;2023-08-08T05:21:17;98706.69;;;22.89;61.05
61109;BME280;46995;55.740;37.402;2023-08-08T05:23:43;98707.59;;;22.83;61.23
61109;BME280;46995;55.740;37.402;2023-08-08T05:26:08;98696.47;;;22.79;61.08
61109;BME280;46995;55.740;37.402;2023-08-08T05:28:34;98697.41;;;22.73;61.39
61109;BME280;46995;55.740;37.402;2023-08-08T05:31:20;98707.78;;;22.69;62.00
61109;BME280;46995;55.740;37.402;2023-08-08T05:33:47;98705.72;;;22.71;61.94
61109;BME280;46995;55.740;37.402;2023-08-08T05:36:13;98691.91;;;22.79;62.03
61109;BME280;46995;55.740;37.402;2023-08-08T05:38:38;98687.38;;;22.92;61.00
61109;BME280;46995;55.740;37.402;2023-08-08T05:41:04;98697.19;;;22.98;61.49
61109;BME280;46995;55.740;37.402;2023-08-08T05:43:30;98707.53;;;23.01;61.63
61109;BME280;46995;55.740;37.402;2023-08-08T05:45:55;98706.94;;;22.99;61.57
61109;BME280;46995;55.740;37.402;2023-08-08T05:48:21;98694.06;;;23.01;62.11
61109;BME280;46995;55.740;37.402;2023-08-08T05:50:46;98696.41;;;23.09;61.53
61109;BME280;46995;55.740;37.402;2023-08-08T05:53:12;98689.38;;;23.19;61.07
61109;BME280;46995;55.740;37.402;2023-08-08T05:55:37;98693.13;;;23.30;61.35
61109;BME280;46995;55.740;37.402;2023-08-08T05:58:05;98703.31;;;23.40;60.97
61109;BME280;46995;55.740;37.402;2023-08-08T06:00:31;98699.94;;;23.44;60.82
61109;BME280;46995;55.740;37.402;2023-08-08T06:02:57;98691.25;;;23.42;61.34
61109;BME280;46995;55.740;37.402;2023-08-08T06:05:22;98702.03;;;23.42;61.54
61109;BME280;46995;55.740;37.402;2023-08-08T06:07:49;98704.41;;;23.50;61.13
61109;BME280;46995;55.740;37.402;2023-08-08T06:10:15;98705.22;;;23.62;61.38
61109;BME280;46995;55.740;37.402;2023-08-08T06:12:40;98707.47;;;23.66;60.67
61109;BME280;46995;55.740;37.402;2023-08-08T06:15:06;98700.75;;;23.68;61.14
61109;BME280;46995;55.740;37.402;2023-08-08T06:17:32;98696.91;;;23.76;61.04
61109;BME280;46995;55.740;37.402;2023-08-08T06:19:57;98700.03;;;23.84;60.86
61109;BME280;46995;55.740;37.402;2023-08-08T06:22:23;98706.91;;;23.92;60.82
61109;BME280;46995;55.740;37.402;2023-08-08T06:24:49;98705.03;;;24.04;60.80
61109;BME280;46995;55.740;37.402;2023-08-08T06:27:15;98698.31;;;24.18;60.28
61109;BME280;46995;55.740;37.402;2023-08-08T06:29:40;98703.13;;;24.28;59.63
61109;BME280;46995;55.740;37.402;2023-08-08T06:32:06;98706.25;;;24.36;59.83
61109;BME280;46995;55.740;37.402;2023-08-08T06:34:32;98705.38;;;24.47;59.84
61109;BME280;46995;55.740;37.402;2023-08-08T06:36:57;98704.16;;;24.55;59.12
61109;BME280;46995;55.740;37.402;2023-08-08T06:39:23;98696.41;;;24.59;59.09
61109;BME280;46995;55.740;37.402;2023-08-08T06:41:49;98696.22;;;24.65;59.35
61109;BME280;46995;55.740;37.402;2023-08-08T06:44:19;98705.00;;;24.72;58.89
61109;BME280;46995;55.740;37.402;2023-08-08T06:46:44;98707.34;;;24.80;59.19
61109;BME280;46995;55.740;37.402;2023-08-08T06:49:10;98714.31;;;24.93;58.63
61109;BME280;46995;55.740;37.402;2023-08-08T06:51:35;98709.75;;;25.10;58.65
61109;BME280;46995;55.740;37.402;2023-08-08T06:54:01;98692.13;;;25.24;58.12
61109;BME280;46995;55.740;37.402;2023-08-08T06:56:27;98693.84;;;25.30;58.21
61109;BME280;46995;55.740;37.402;2023-08-08T06:58:53;98709.75;;;25.27;57.85
61109;BME280;46995;55.740;37.402;2023-08-08T07:01:18;98720.72;;;25.20;58.15
61109;BME280;46995;55.740;37.402;2023-08-08T07:03:44;98715.72;;;25.12;58.52
61109;BME280;46995;55.740;37.402;2023-08-08T07:06:10;98716.44;;;25.08;57.94
61109;BME280;46995;55.740;37.402;2023-08-08T07:08:35;98722.91;;;24.90;58.13
61109;BME280;46995;55.740;37.402;2023-08-08T07:11:04;98725.25;;;24.86;58.55
61109;BME280;46995;55.740;37.402;2023-08-08T07:13:31;98726.69;;;24.89;58.88
61109;BME280;46995;55.740;37.402;2023-08-08T07:15:56;98730.06;;;24.96;58.51
61109;BME280;46995;55.740;37.402;2023-08-08T07:18:22;98735.53;;;25.01;58.33
61109;BME280;46995;55.740;37.402;2023-08-08T07:20:49;98734.53;;;25.07;58.73
61109;BME280;46995;55.740;37.402;2023-08-08T07:23:16;98731.38;;;25.10;58.60
61109;BME280;46995;55.740;37.402;2023-08-08T07:25:42;98734.47;;;25.02;57.91
61109;BME280;46995;55.740;37.402;2023-08-08T07:28:08;98727.81;;;24.93;58.31
61109;BME280;46995;55.740;37.402;2023-08-08T07:30:34;98723.16;;;24.88;58.59
61109;BME280;46995;55.740;37.402;2023-08-08T07:32:59;98722.75;;;24.97;58.62
61109;BME280;46995;55.740;37.402;2023-08-08T07:35:25;98728.34;;;25.07;58.22
61109;BME280;46995;55.740;37.402;2023-08-08T07:37:51;98720.22;;;25.23;58.41
61109;BME280;46995;55.740;37.402;2023-08-08T07:40:17;98731.75;;;25.36;58.08
61109;BME280;46995;55.740;37.402;2023-08-08T07:42:46;98742.16;;;25.44;57.95
61109;BME280;46995;55.740;37.402;2023-08-08T07:45:12;98741.75;;;25.52;57.41
61109;BME280;46995;55.740;37.402;2023-08-08T07:47:38;98739.72;;;25.59;57.54
61109;BME280;46995;55.740;37.402;2023-08-08T07:50:03;98731.25;;;25.72;57.16
61109;BME280;46995;55.740;37.402;2023-08-08T07:52:29;98740.72;;;25.91;56.73
61109;BME280;46995;55.740;37.402;2023-08-08T07:54:55;98743.13;;;26.09;56.84
61109;BME280;46995;55.740;37.402;2023-08-08T07:57:22;98744.81;;;26.15;55.99
61109;BME280;46995;55.740;37.402;2023-08-08T07:59:48;98747.47;;;26.10;55.79
61109;BME280;46995;55.740;37.402;2023-08-08T08:02:13;98747.41;;;26.05;56.56
61109;BME280;46995;55.740;37.402;2023-08-08T08:04:39;98746.81;;;26.03;56.33
61109;BME280;46995;55.740;37.402;2023-08-08T08:07:05;98742.75;;;26.01;56.20
61109;BME280;46995;55.740;37.402;2023-08-08T08:09:30;98741.41;;;26.03;56.37
61109;BME280;46995;55.740;37.402;2023-08-08T08:11:56;98745.78;;;26.04;56.64
61109;BME280;46995;55.740;37.402;2023-08-08T08:14:21;98740.22;;;25.94;55.87
61109;BME280;46995;55.740;37.402;2023-08-08T08:16:47;98733.09;;;25.88;56.24
61109;BME280;46995;55.740;37.402;2023-08-08T08:19:13;98750.09;;;25.84;56.60
61109;BME280;46995;55.740;37.402;2023-08-08T08:21:39;98746.31;;;25.85;56.64
61109;BME280;46995;55.740;37.402;2023-08-08T08:24:05;98736.47;;;25.95;56.66
61109;BME280;46995;55.740;37.402;2023-08-08T08:26:31;98746.34;;;26.06;56.81
61109;BME280;46995;55.740;37.402;2023-08-08T08:28:57;98743.69;;;26.11;56.34
61109;BME280;46995;55.740;37.402;2023-08-08T08:31:23;98741.00;;;26.11;56.46
61109;BME280;46995;55.740;37.402;2023-08-08T08:33:48;98740.41;;;26.09;56.46
61109;BME280;46995;55.740;37.402;2023-08-08T08:36:14;98747.47;;;26.10;56.46
61109;BME280;46995;55.740;37.402;2023-08-08T08:38:40;98744.50;;;26.12;56.75
61109;BME280;46995;55.740;37.402;2023-08-08T08:41:05;98753.50;;;26.17;56.65
61109;BME280;46995;55.740;37.402;2023-08-08T08:43:31;98755.00;;;26.25;56.74
61109;BME280;46995;55.740;37.402;2023-08-08T08:45:57;98765.94;;;26.35;56.72
61109;BME280;46995;55.740;37.402;2023-08-08T08:48:25;98759.34;;;26.48;56.53
61109;BME280;46995;55.740;37.402;2023-08-08T08:50:50;98755.16;;;26.62;56.03
61109;BME280;46995;55.740;37.402;2023-08-08T08:53:16;98758.53;;;26.74;56.34
61109;BME280;46995;55.740;37.402;2023-08-08T08:55:43;98759.66;;;26.78;56.01
61109;BME280;46995;55.740;37.402;2023-08-08T08:58:08;98759.66;;;26.78;55.02
61109;BME280;46995;55.740;37.402;2023-08-08T09:00:34;98753.13;;;26.74;55.81
61109;BME280;46995;55.740;37.402;2023-08-08T09:03:00;98760.16;;;26.75;55.71
61109;BME280;46995;55.740;37.402;2023-08-08T09:05:28;98755.19;;;26.67;55.35
61109;BME280;46995;55.740;37.402;2023-08-08T09:07:54;98751.16;;;26.70;55.77
61109;BME280;46995;55.740;37.402;2023-08-08T09:10:20;98753.16;;;26.79;55.72
61109;BME280;46995;55.740;37.402;2023-08-08T09:12:46;98746.00;;;26.90;55.41
61109;BME280;46995;55.740;37.402;2023-08-08T09:15:12;98750.69;;;27.00;55.14
61109;BME280;46995;55.740;37.402;2023-08-08T09:17:41;98754.84;;;27.12;55.20
61109;BME280;46995;55.740;37.402;2023-08-08T09:20:08;98752.50;;;27.21;55.03
61109;BME280;46995;55.740;37.402;2023-08-08T09:22:36;98759.03;;;27.25;54.84
61109;BME280;46995;55.740;37.402;2023-08-08T09:25:02;98758.50;;;27.28;54.53
61109;BME280;46995;55.740;37.402;2023-08-08T09:27:28;98761.03;;;27.39;54.63
61109;BME280;46995;55.740;37.402;2023-08-08T09:29:54;98760.50;;;27.42;53.91
61109;BME280;46995;55.740;37.402;2023-08-08T09:32:19;98764.75;;;27.28;54.22
61109;BME280;46995;55.740;37.402;2023-08-08T09:34:45;98762.59;;;27.30;54.41
61109;BME280;46995;55.740;37.402;2023-08-08T09:37:11;98763.09;;;27.27;54.45
61109;BME280;46995;55.740;37.402;2023-08-08T09:39:37;98768.22;;;27.24;54.72
61109;BME280;46995;55.740;37.402;2023-08-08T09:42:02;98759.03;;;27.25;54.73
61109;BME280;46995;55.740;37.402;2023-08-08T09:44:29;98762.06;;;27.33;54.65
61109;BME280;46995;55.740;37.402;2023-08-08T09:46:55;98773.53;;;27.40;54.49
61109;BME280;46995;55.740;37.402;2023-08-08T09:49:21;98769.47;;;27.43;54.44
61109;BME280;46995;55.740;37.402;2023-08-08T09:51:47;98773.81;;;27.44;54.59
61109;BME280;46995;55.740;37.402;2023-08-08T09:54:14;98771.34;;;27.42;54.37
61109;BME280;46995;55.740;37.402;2023-08-08T09:56:40;98767.88;;;27.47;54.25
61109;BME280;46995;55.740;37.402;2023-08-08T09:59:06;98773.84;;;27.49;54.00
61109;BME280;46995;55.740;37.402;2023-08-08T10:01:32;98771.22;;;27.54;54.17
61109;BME280;46995;55.740;37.402;2023-08-08T10:03:58;98770.13;;;27.55;54.19
61109;BME280;46995;55.740;37.402;2023-08-08T10:06:24;98785.56;;;27.50;54.13
61109;BME280;46995;55.740;37.402;2023-08-08T10:08:51;98771.06;;;27.39;54.48
61109;BME280;46995;55.740;37.402;2023-08-08T10:11:16;98777.44;;;27.23;54.80
61109;BME280;46995;55.740;37.402;2023-08-08T10:13:47;98773.78;;;27.07;55.07
61109;BME280;46995;55.740;37.402;2023-08-08T10:16:14;98777.69;;;26.89;55.78
61109;BME280;46995;55.740;37.402;2023-08-08T10:18:40;98775.91;;;26.78;55.81
61109;BME280;46995;55.740;37.402;2023-08-08T10:21:06;98768.75;;;26.67;56.27
61109;BME280;46995;55.740;37.402;2023-08-08T10:23:38;98781.41;;;26.62;56.32
61109;BME280;46995;55.740;37.402;2023-08-08T10:26:05;98772.94;;;26.53;56.59
61109;BME280;46995;55.740;37.402;2023-08-08T10:28:31;98780.44;;;26.46;56.89
61109;BME280;46995;55.740;37.402;2023-08-08T10:30:57;98788.44;;;26.36;56.95
61109;BME280;46995;55.740;37.402;2023-08-08T10:33:27;98793.72;;;26.26;56.90
61109;BME280;46995;55.740;37.402;2023-08-08T10:38:19;98796.44;;;26.09;57.23
61109;BME280;46995;55.740;37.402;2023-08-08T10:40:47;98797.19;;;26.04;57.72
61109;BME280;46995;55.740;37.402;2023-08-08T10:43:12;98803.59;;;25.98;57.57
61109;BME280;46995;55.740;37.402;2023-08-08T10:45:43;98801.63;;;25.94;57.88
61109;BME280;46995;55.740;37.402;2023-08-08T10:48:09;98804.59;;;25.92;58.21
61109;BME280;46995;55.740;37.402;2023-08-08T10:50:39;98813.75;;;25.91;58.04
61109;BME280;46995;55.740;37.402;2023-08-08T10:53:07;98816.16;;;25.88;58.21
61109;BME280;46995;55.740;37.402;2023-08-08T10:55:34;98822.41;;;25.88;58.00
61109;BME280;46995;55.740;37.402;2023-08-08T11:00:29;98820.81;;;25.92;58.27
61109;BME280;46995;55.740;37.402;2023-08-08T11:02:56;98822.78;;;25.97;58.25
61109;BME280;46995;55.740;37.402;2023-08-08T11:05:22;98833.94;;;26.00;58.57
61109;BME280;46995;55.740;37.402;2023-08-08T11:07:48;98829.09;;;26.02;58.17
61109;BME280;46995;55.740;37.402;2023-08-08T11:10:14;98832.84;;;26.01;58.31
61109;BME280;46995;55.740;37.402;2023-08-08T11:12:39;98829.00;;;25.97;58.45
61109;BME280;46995;55.740;37.402;2023-08-08T11:15:05;98821.72;;;25.98;58.79
61109;BME280;46995;55.740;37.402;2023-08-08T11:17:32;98824.25;;;26.04;58.55
61109;BME280;46995;55.740;37.402;2023-08-08T11:19:57;98828.81;;;26.21;58.15
61109;BME280;46995;55.740;37.402;2023-08-08T11:22:23;98826.16;;;26.42;57.73
61109;BME280;46995;55.740;37.402;2023-08-08T11:24:49;98826.75;;;26.71;57.21
61109;BME280;46995;55.740;37.402;2023-08-08T11:27:15;98814.34;;;26.97;56.67
61109;BME280;46995;55.740;37.402;2023-08-08T11:29:48;98820.81;;;27.23;56.21
61109;BME280;46995;55.740;37.402;2023-08-08T11:32:14;98818.59;;;27.47;55.91
61109;BME280;46995;55.740;37.402;2023-08-08T11:34:39;98820.13;;;27.64;55.64
61109;BME280;46995;55.740;37.402;2023-08-08T11:37:05;98807.75;;;27.78;54.90
61109;BME280;46995;55.740;37.402;2023-08-08T11:39:31;98819.19;;;27.86;54.55
61109;BME280;46995;55.740;37.402;2023-08-08T11:41:56;98814.34;;;27.93;54.67
61109;BME280;46995;55.740;37.402;2023-08-08T11:44:22;98820.06;;;27.96;54.68
61109;BME280;46995;55.740;37.402;2023-08-08T11:46:48;98823.50;;;27.81;54.88
61109;BME280;46995;55.740;37.402;2023-08-08T11:49:16;98827.16;;;27.60;55.65
61109;BME280;46995;55.740;37.402;2023-08-08T11:51:43;98828.59;;;27.41;55.67
61109;BME280;46995;55.740;37.402;2023-08-08T11:54:08;98825.84;;;27.36;55.77
61109;BME280;46995;55.740;37.402;2023-08-08T11:56:34;98826.34;;;27.33;55.97
61109;BME280;46995;55.740;37.402;2023-08-08T11:59:01;98832.91;;;27.37;55.98
61109;BME280;46995;55.740;37.402;2023-08-08T12:01:27;98824.81;;;27.42;55.60
61109;BME280;46995;55.740;37.402;2023-08-08T12:03:53;98830.25;;;27.42;54.80
61109;BME280;46995;55.740;37.402;2023-08-08T12:06:19;98819.59;;;27.35;55.16
61109;BME280;46995;55.740;37.402;2023-08-08T12:08:45;98818.19;;;27.33;55.60
61109;BME280;46995;55.740;37.402;2023-08-08T12:11:12;98817.13;;;27.34;55.66
61109;BME280;46995;55.740;37.402;2023-08-08T12:13:38;98818.31;;;27.48;55.32
61109;BME280;46995;55.740;37.402;2023-08-08T12:16:06;98825.84;;;28.05;54.69
61109;BME280;46995;55.740;37.402;2023-08-08T12:18:33;98820.31;;;29.04;53.21
61109;BME280;46995;55.740;37.402;2023-08-08T12:20:59;98825.22;;;29.17;52.91
61109;BME280;46995;55.740;37.402;2023-08-08T12:23:26;98831.19;;;28.94;52.83
61109;BME280;46995;55.740;37.402;2023-08-08T12:25:52;98830.59;;;28.77;53.05
61109;BME280;46995;55.740;37.402;2023-08-08T12:28:19;98824.00;;;28.68;53.34
61109;BME280;46995;55.740;37.402;2023-08-08T12:30:44;98821.06;;;28.84;52.98
61109;BME280;46995;55.740;37.402;2023-08-08T12:33:10;98822.75;;;29.05;52.63
61109;BME280;46995;55.740;37.402;2023-08-08T12:35:36;98825.78;;;29.19;52.60
61109;BME280;46995;55.740;37.402;2023-08-08T12:38:01;98821.41;;;29.08;52.28
61109;BME280;46995;55.740;37.402;2023-08-08T12:40:30;98821.63;;;28.81;52.65
61109;BME280;46995;55.740;37.402;2023-08-08T12:42:55;98823.38;;;28.50;52.84
61109;BME280;46995;55.740;37.402;2023-08-08T12:45:21;98823.25;;;28.20;53.75
61109;BME280;46995;55.740;37.402;2023-08-08T12:47:46;98824.75;;;28.06;53.91
61109;BME280;46995;55.740;37.402;2023-08-08T12:50:12;98828.25;;;28.01;54.18
61109;BME280;46995;55.740;37.402;2023-08-08T12:52:38;98819.25;;;27.96;54.12